KWRI/WRI METAR and TAF weather

Enter ICAO airport designator
Station Type Date Time Source
KWRI METAR 2022/06/26 07:56 UTC NOAA

KWRI 260756Z AUTO 21004KT 10SM CLR 20/19 A3012 RMK AO2 SLP198 T02010186


Station Type Date Time Source
KWRI Decoded METAR 2022/06/26 07:56 UTC NOAA

Mcguire Air Force Base, NJ, United States (KWRI) 40-01N 074-36W
Jun 26, 2022 - 03:56 AM EDT / 2022.06.26 0756 UTC
Wind: from the SSW (210 degrees) at 5 MPH (4 KT):0
Visibility: 10 mile(s):0
Sky conditions: clear
Temperature: 68.2 F (20.1 C)
Dew Point: 65.5 F (18.6 C)
Relative Humidity: 91%
Pressure (altimeter): 30.12 in. Hg (1019 hPa)
ob: KWRI 260756Z AUTO 21004KT 10SM CLR 20/19 A3012 RMK AO2 SLP198 T02010186
cycle: 8

Station Type Date Time Source
KWRI TAF 2022/06/26 02:14 UTC NOAA

TAF KWRI 260200Z 2602/2708 20007KT 9999 SKC QNH3008INS
BECMG 2614/2615 20010G15KT 9999 FEW050 QNH3005INS
BECMG 2621/2622 18010KT 9999 SCT040 QNH3000INS
BECMG 2704/2705 20010KT 9999 BKN040 QNH2994INS TX33/2619Z TN16/2610Z

Example: see airport list